sensor_id;sensor_type;location;lat;lon;timestamp;P1;durP1;ratioP1;P2;durP2;ratioP2
20476;SDS011;10397;50.948;11.092;2023-06-14T00:01:24;5.03;;;1.90;;
20476;SDS011;10397;50.948;11.092;2023-06-14T00:03:54;9.67;;;2.00;;
20476;SDS011;10397;50.948;11.092;2023-06-14T00:06:25;7.93;;;2.37;;
20476;SDS011;10397;50.948;11.092;2023-06-14T00:08:56;4.57;;;2.20;;
20476;SDS011;10397;50.948;11.092;2023-06-14T00:11:27;9.10;;;2.67;;
20476;SDS011;10397;50.948;11.092;2023-06-14T00:13:58;7.47;;;2.27;;
20476;SDS011;10397;50.948;11.092;2023-06-14T00:16:28;4.80;;;2.17;;
20476;SDS011;10397;50.948;11.092;2023-06-14T00:18:59;4.90;;;2.23;;
20476;SDS011;10397;50.948;11.092;2023-06-14T00:21:33;3.80;;;2.13;;
20476;SDS011;10397;50.948;11.092;2023-06-14T00:24:05;3.40;;;1.80;;
20476;SDS011;10397;50.948;11.092;2023-06-14T00:26:36;3.60;;;2.22;;
20476;SDS011;10397;50.948;11.092;2023-06-14T00:29:07;5.17;;;2.10;;
20476;SDS011;10397;50.948;11.092;2023-06-14T00:31:39;6.00;;;2.77;;
20476;SDS011;10397;50.948;11.092;2023-06-14T00:34:11;6.87;;;2.50;;
20476;SDS011;10397;50.948;11.092;2023-06-14T00:36:42;4.78;;;2.10;;
20476;SDS011;10397;50.948;11.092;2023-06-14T00:39:13;5.25;;;2.70;;
20476;SDS011;10397;50.948;11.092;2023-06-14T00:41:45;6.15;;;2.42;;
20476;SDS011;10397;50.948;11.092;2023-06-14T00:44:16;4.27;;;2.30;;
20476;SDS011;10397;50.948;11.092;2023-06-14T00:46:47;4.25;;;2.40;;
20476;SDS011;10397;50.948;11.092;2023-06-14T00:49:18;5.47;;;2.30;;
20476;SDS011;10397;50.948;11.092;2023-06-14T00:51:49;4.65;;;2.47;;
20476;SDS011;10397;50.948;11.092;2023-06-14T00:54:20;10.00;;;2.83;;
20476;SDS011;10397;50.948;11.092;2023-06-14T00:56:52;5.58;;;2.25;;
20476;SDS011;10397;50.948;11.092;2023-06-14T00:59:23;4.80;;;2.30;;
20476;SDS011;10397;50.948;11.092;2023-06-14T01:01:54;9.43;;;2.47;;
20476;SDS011;10397;50.948;11.092;2023-06-14T01:04:25;2.93;;;2.40;;
20476;SDS011;10397;50.948;11.092;2023-06-14T01:07:09;5.00;;;2.42;;
20476;SDS011;10397;50.948;11.092;2023-06-14T01:09:52;3.80;;;2.30;;
20476;SDS011;10397;50.948;11.092;2023-06-14T01:12:20;4.97;;;2.45;;
20476;SDS011;10397;50.948;11.092;2023-06-14T01:14:48;5.30;;;2.52;;
20476;SDS011;10397;50.948;11.092;2023-06-14T01:17:18;7.17;;;2.63;;
20476;SDS011;10397;50.948;11.092;2023-06-14T01:19:50;4.22;;;2.25;;
20476;SDS011;10397;50.948;11.092;2023-06-14T01:22:20;5.40;;;2.57;;
20476;SDS011;10397;50.948;11.092;2023-06-14T01:24:52;3.40;;;2.22;;
20476;SDS011;10397;50.948;11.092;2023-06-14T01:27:26;4.53;;;2.02;;
20476;SDS011;10397;50.948;11.092;2023-06-14T01:29:56;3.60;;;2.33;;
20476;SDS011;10397;50.948;11.092;2023-06-14T01:32:28;4.30;;;2.35;;
20476;SDS011;10397;50.948;11.092;2023-06-14T01:34:59;3.08;;;2.02;;
20476;SDS011;10397;50.948;11.092;2023-06-14T01:37:30;5.87;;;2.10;;
20476;SDS011;10397;50.948;11.092;2023-06-14T01:40:03;4.78;;;1.77;;
20476;SDS011;10397;50.948;11.092;2023-06-14T01:42:32;3.67;;;1.93;;
20476;SDS011;10397;50.948;11.092;2023-06-14T01:45:03;3.58;;;2.20;;
20476;SDS011;10397;50.948;11.092;2023-06-14T01:47:33;3.00;;;2.07;;
20476;SDS011;10397;50.948;11.092;2023-06-14T01:50:04;7.50;;;1.72;;
20476;SDS011;10397;50.948;11.092;2023-06-14T01:52:36;5.73;;;2.17;;
20476;SDS011;10397;50.948;11.092;2023-06-14T01:55:06;3.50;;;2.50;;
20476;SDS011;10397;50.948;11.092;2023-06-14T01:57:36;5.57;;;2.20;;
20476;SDS011;10397;50.948;11.092;2023-06-14T02:00:08;5.75;;;2.37;;
20476;SDS011;10397;50.948;11.092;2023-06-14T02:02:38;3.90;;;2.03;;
20476;SDS011;10397;50.948;11.092;2023-06-14T02:05:09;4.08;;;2.05;;
20476;SDS011;10397;50.948;11.092;2023-06-14T02:07:40;4.50;;;2.00;;
20476;SDS011;10397;50.948;11.092;2023-06-14T02:10:11;2.27;;;1.83;;
20476;SDS011;10397;50.948;11.092;2023-06-14T02:12:42;3.63;;;2.03;;
20476;SDS011;10397;50.948;11.092;2023-06-14T02:15:13;4.25;;;2.05;;
20476;SDS011;10397;50.948;11.092;2023-06-14T02:17:46;2.87;;;2.00;;
20476;SDS011;10397;50.948;11.092;2023-06-14T02:20:20;3.63;;;2.33;;
20476;SDS011;10397;50.948;11.092;2023-06-14T02:22:51;3.87;;;2.07;;
20476;SDS011;10397;50.948;11.092;2023-06-14T02:25:22;2.83;;;2.23;;
20476;SDS011;10397;50.948;11.092;2023-06-14T02:27:53;4.47;;;2.20;;
20476;SDS011;10397;50.948;11.092;2023-06-14T02:30:24;11.10;;;2.37;;
20476;SDS011;10397;50.948;11.092;2023-06-14T02:32:55;5.15;;;2.27;;
20476;SDS011;10397;50.948;11.092;2023-06-14T02:35:26;3.07;;;2.13;;
20476;SDS011;10397;50.948;11.092;2023-06-14T02:37:57;3.02;;;2.02;;
20476;SDS011;10397;50.948;11.092;2023-06-14T02:40:28;7.40;;;1.95;;
20476;SDS011;10397;50.948;11.092;2023-06-14T02:43:00;4.25;;;2.10;;
20476;SDS011;10397;50.948;11.092;2023-06-14T02:45:31;3.67;;;1.85;;
20476;SDS011;10397;50.948;11.092;2023-06-14T02:48:02;6.13;;;2.10;;
20476;SDS011;10397;50.948;11.092;2023-06-14T02:50:32;6.60;;;2.03;;
20476;SDS011;10397;50.948;11.092;2023-06-14T02:53:04;5.87;;;2.22;;
20476;SDS011;10397;50.948;11.092;2023-06-14T02:55:35;3.00;;;1.98;;
20476;SDS011;10397;50.948;11.092;2023-06-14T02:58:06;4.50;;;2.00;;
20476;SDS011;10397;50.948;11.092;2023-06-14T03:00:37;2.97;;;2.20;;
20476;SDS011;10397;50.948;11.092;2023-06-14T03:03:08;6.75;;;2.02;;
20476;SDS011;10397;50.948;11.092;2023-06-14T03:05:46;4.60;;;2.07;;
20476;SDS011;10397;50.948;11.092;2023-06-14T03:08:16;5.10;;;2.00;;
20476;SDS011;10397;50.948;11.092;2023-06-14T03:10:46;6.83;;;2.07;;
20476;SDS011;10397;50.948;11.092;2023-06-14T03:13:17;4.03;;;1.60;;
20476;SDS011;10397;50.948;11.092;2023-06-14T03:15:48;3.23;;;1.87;;
20476;SDS011;10397;50.948;11.092;2023-06-14T03:18:18;3.00;;;2.03;;
20476;SDS011;10397;50.948;11.092;2023-06-14T03:20:50;2.67;;;1.60;;
20476;SDS011;10397;50.948;11.092;2023-06-14T03:23:21;8.05;;;2.05;;
20476;SDS011;10397;50.948;11.092;2023-06-14T03:25:52;4.87;;;2.17;;
20476;SDS011;10397;50.948;11.092;2023-06-14T03:28:22;3.05;;;1.72;;
20476;SDS011;10397;50.948;11.092;2023-06-14T03:30:53;6.72;;;1.82;;
20476;SDS011;10397;50.948;11.092;2023-06-14T03:33:25;4.47;;;2.10;;
20476;SDS011;10397;50.948;11.092;2023-06-14T03:35:55;3.50;;;2.00;;
20476;SDS011;10397;50.948;11.092;2023-06-14T03:38:27;5.30;;;2.00;;
20476;SDS011;10397;50.948;11.092;2023-06-14T03:40:58;1.85;;;1.57;;
20476;SDS011;10397;50.948;11.092;2023-06-14T03:43:30;1.82;;;1.37;;
20476;SDS011;10397;50.948;11.092;2023-06-14T03:46:02;2.52;;;1.47;;
20476;SDS011;10397;50.948;11.092;2023-06-14T03:48:33;4.78;;;1.82;;
20476;SDS011;10397;50.948;11.092;2023-06-14T03:51:05;2.95;;;2.08;;
20476;SDS011;10397;50.948;11.092;2023-06-14T03:53:37;2.95;;;1.65;;
20476;SDS011;10397;50.948;11.092;2023-06-14T03:56:08;5.45;;;2.30;;
20476;SDS011;10397;50.948;11.092;2023-06-14T03:58:40;3.45;;;1.75;;
20476;SDS011;10397;50.948;11.092;2023-06-14T04:01:11;3.90;;;1.80;;
20476;SDS011;10397;50.948;11.092;2023-06-14T04:03:42;2.73;;;1.60;;
20476;SDS011;10397;50.948;11.092;2023-06-14T04:06:14;2.90;;;1.90;;
20476;SDS011;10397;50.948;11.092;2023-06-14T04:08:44;2.70;;;1.50;;
20476;SDS011;10397;50.948;11.092;2023-06-14T04:11:15;8.38;;;1.80;;
20476;SDS011;10397;50.948;11.092;2023-06-14T04:13:46;3.20;;;1.67;;
20476;SDS011;10397;50.948;11.092;2023-06-14T04:16:17;3.50;;;1.75;;
20476;SDS011;10397;50.948;11.092;2023-06-14T04:18:48;5.47;;;1.62;;
20476;SDS011;10397;50.948;11.092;2023-06-14T04:21:20;4.10;;;1.57;;
20476;SDS011;10397;50.948;11.092;2023-06-14T04:23:51;5.47;;;1.65;;
20476;SDS011;10397;50.948;11.092;2023-06-14T04:26:22;1.83;;;1.30;;
20476;SDS011;10397;50.948;11.092;2023-06-14T04:28:53;2.30;;;1.35;;
20476;SDS011;10397;50.948;11.092;2023-06-14T04:31:25;2.83;;;1.50;;
20476;SDS011;10397;50.948;11.092;2023-06-14T04:33:56;2.70;;;1.43;;
20476;SDS011;10397;50.948;11.092;2023-06-14T04:36:26;2.40;;;1.50;;
20476;SDS011;10397;50.948;11.092;2023-06-14T04:38:57;3.83;;;1.57;;
20476;SDS011;10397;50.948;11.092;2023-06-14T04:41:29;2.77;;;1.60;;
20476;SDS011;10397;50.948;11.092;2023-06-14T04:44:00;2.65;;;1.40;;
20476;SDS011;10397;50.948;11.092;2023-06-14T04:46:31;5.12;;;1.62;;
20476;SDS011;10397;50.948;11.092;2023-06-14T04:49:02;2.10;;;1.67;;
20476;SDS011;10397;50.948;11.092;2023-06-14T04:51:34;2.95;;;1.45;;
20476;SDS011;10397;50.948;11.092;2023-06-14T04:54:06;6.85;;;1.82;;
20476;SDS011;10397;50.948;11.092;2023-06-14T04:56:37;2.43;;;1.90;;
20476;SDS011;10397;50.948;11.092;2023-06-14T04:59:08;2.20;;;1.50;;
20476;SDS011;10397;50.948;11.092;2023-06-14T05:01:41;3.27;;;1.63;;
20476;SDS011;10397;50.948;11.092;2023-06-14T05:04:16;4.70;;;1.93;;
20476;SDS011;10397;50.948;11.092;2023-06-14T05:06:47;5.62;;;1.70;;
20476;SDS011;10397;50.948;11.092;2023-06-14T05:09:18;4.37;;;1.60;;
20476;SDS011;10397;50.948;11.092;2023-06-14T05:11:49;3.70;;;1.60;;
20476;SDS011;10397;50.948;11.092;2023-06-14T05:14:20;4.45;;;1.85;;
20476;SDS011;10397;50.948;11.092;2023-06-14T05:16:52;2.60;;;1.72;;
20476;SDS011;10397;50.948;11.092;2023-06-14T05:19:23;2.12;;;1.75;;
20476;SDS011;10397;50.948;11.092;2023-06-14T05:21:54;3.93;;;1.70;;
20476;SDS011;10397;50.948;11.092;2023-06-14T05:24:25;4.28;;;2.05;;
20476;SDS011;10397;50.948;11.092;2023-06-14T05:26:56;6.47;;;2.13;;
20476;SDS011;10397;50.948;11.092;2023-06-14T05:29:27;3.05;;;2.40;;
20476;SDS011;10397;50.948;11.092;2023-06-14T05:31:59;5.17;;;1.85;;
20476;SDS011;10397;50.948;11.092;2023-06-14T05:34:30;2.47;;;1.70;;
20476;SDS011;10397;50.948;11.092;2023-06-14T05:37:02;4.00;;;2.17;;
20476;SDS011;10397;50.948;11.092;2023-06-14T05:39:32;3.77;;;1.87;;
20476;SDS011;10397;50.948;11.092;2023-06-14T05:42:04;9.00;;;2.00;;
20476;SDS011;10397;50.948;11.092;2023-06-14T05:44:35;2.37;;;1.90;;
20476;SDS011;10397;50.948;11.092;2023-06-14T05:47:06;11.17;;;2.23;;
20476;SDS011;10397;50.948;11.092;2023-06-14T05:49:37;3.13;;;1.87;;
20476;SDS011;10397;50.948;11.092;2023-06-14T05:52:09;5.30;;;2.02;;
20476;SDS011;10397;50.948;11.092;2023-06-14T05:54:40;4.45;;;1.92;;
20476;SDS011;10397;50.948;11.092;2023-06-14T05:57:11;4.20;;;1.55;;
20476;SDS011;10397;50.948;11.092;2023-06-14T05:59:42;6.07;;;2.00;;
20476;SDS011;10397;50.948;11.092;2023-06-14T06:02:14;2.22;;;1.60;;
20476;SDS011;10397;50.948;11.092;2023-06-14T06:04:44;3.30;;;2.13;;
20476;SDS011;10397;50.948;11.092;2023-06-14T06:07:16;2.80;;;2.00;;
20476;SDS011;10397;50.948;11.092;2023-06-14T06:09:47;4.07;;;1.83;;
20476;SDS011;10397;50.948;11.092;2023-06-14T06:12:18;2.47;;;2.10;;
20476;SDS011;10397;50.948;11.092;2023-06-14T06:14:49;5.40;;;2.03;;
20476;SDS011;10397;50.948;11.092;2023-06-14T06:17:20;5.17;;;2.33;;
20476;SDS011;10397;50.948;11.092;2023-06-14T06:19:51;4.87;;;2.37;;
20476;SDS011;10397;50.948;11.092;2023-06-14T06:22:23;4.37;;;2.08;;
20476;SDS011;10397;50.948;11.092;2023-06-14T06:24:55;2.85;;;1.87;;
20476;SDS011;10397;50.948;11.092;2023-06-14T06:27:26;4.40;;;1.75;;
20476;SDS011;10397;50.948;11.092;2023-06-14T06:29:58;2.62;;;1.80;;
20476;SDS011;10397;50.948;11.092;2023-06-14T06:32:29;2.65;;;2.02;;
20476;SDS011;10397;50.948;11.092;2023-06-14T06:35:01;4.05;;;2.55;;
20476;SDS011;10397;50.948;11.092;2023-06-14T06:37:32;5.67;;;1.90;;
20476;SDS011;10397;50.948;11.092;2023-06-14T06:40:03;4.87;;;2.60;;
20476;SDS011;10397;50.948;11.092;2023-06-14T06:42:34;6.85;;;2.25;;
20476;SDS011;10397;50.948;11.092;2023-06-14T06:45:05;2.67;;;2.25;;
20476;SDS011;10397;50.948;11.092;2023-06-14T06:47:36;4.17;;;1.93;;
20476;SDS011;10397;50.948;11.092;2023-06-14T06:50:07;3.22;;;2.02;;
20476;SDS011;10397;50.948;11.092;2023-06-14T06:52:38;2.85;;;1.98;;
20476;SDS011;10397;50.948;11.092;2023-06-14T06:55:10;7.33;;;2.67;;
20476;SDS011;10397;50.948;11.092;2023-06-14T06:57:41;3.15;;;2.20;;
20476;SDS011;10397;50.948;11.092;2023-06-14T07:00:13;8.00;;;2.52;;
20476;SDS011;10397;50.948;11.092;2023-06-14T07:02:43;3.33;;;2.40;;
20476;SDS011;10397;50.948;11.092;2023-06-14T07:05:14;2.80;;;1.97;;
20476;SDS011;10397;50.948;11.092;2023-06-14T07:07:45;2.67;;;2.20;;
20476;SDS011;10397;50.948;11.092;2023-06-14T07:10:17;4.22;;;2.05;;
20476;SDS011;10397;50.948;11.092;2023-06-14T07:12:48;9.48;;;2.30;;
20476;SDS011;10397;50.948;11.092;2023-06-14T07:15:19;2.93;;;2.03;;
20476;SDS011;10397;50.948;11.092;2023-06-14T07:17:50;2.93;;;2.23;;
20476;SDS011;10397;50.948;11.092;2023-06-14T07:20:21;6.07;;;2.50;;
20476;SDS011;10397;50.948;11.092;2023-06-14T07:22:53;5.30;;;2.40;;
20476;SDS011;10397;50.948;11.092;2023-06-14T07:25:24;5.07;;;2.83;;
20476;SDS011;10397;50.948;11.092;2023-06-14T07:27:55;3.58;;;2.00;;
20476;SDS011;10397;50.948;11.092;2023-06-14T07:30:27;4.97;;;2.27;;
20476;SDS011;10397;50.948;11.092;2023-06-14T07:32:58;2.67;;;2.00;;
20476;SDS011;10397;50.948;11.092;2023-06-14T07:35:29;4.75;;;2.20;;
20476;SDS011;10397;50.948;11.092;2023-06-14T07:38:01;3.72;;;2.85;;
20476;SDS011;10397;50.948;11.092;2023-06-14T07:40:32;2.90;;;2.15;;
20476;SDS011;10397;50.948;11.092;2023-06-14T07:43:04;4.00;;;2.02;;
20476;SDS011;10397;50.948;11.092;2023-06-14T07:45:36;6.35;;;3.00;;
20476;SDS011;10397;50.948;11.092;2023-06-14T07:48:06;4.30;;;3.03;;
20476;SDS011;10397;50.948;11.092;2023-06-14T07:50:37;4.00;;;2.50;;
20476;SDS011;10397;50.948;11.092;2023-06-14T07:53:08;2.83;;;2.33;;
20476;SDS011;10397;50.948;11.092;2023-06-14T07:55:40;4.33;;;2.98;;
20476;SDS011;10397;50.948;11.092;2023-06-14T07:58:10;4.53;;;2.27;;
20476;SDS011;10397;50.948;11.092;2023-06-14T08:00:41;3.27;;;2.30;;
20476;SDS011;10397;50.948;11.092;2023-06-14T08:03:13;2.67;;;2.47;;
20476;SDS011;10397;50.948;11.092;2023-06-14T08:05:45;4.12;;;2.62;;
20476;SDS011;10397;50.948;11.092;2023-06-14T08:08:16;4.25;;;2.72;;
20476;SDS011;10397;50.948;11.092;2023-06-14T08:10:47;4.15;;;2.30;;
20476;SDS011;10397;50.948;11.092;2023-06-14T08:13:18;4.17;;;2.30;;
20476;SDS011;10397;50.948;11.092;2023-06-14T08:15:49;2.60;;;2.40;;
20476;SDS011;10397;50.948;11.092;2023-06-14T08:18:21;8.38;;;2.40;;
20476;SDS011;10397;50.948;11.092;2023-06-14T08:20:52;3.55;;;1.92;;
20476;SDS011;10397;50.948;11.092;2023-06-14T08:23:24;4.40;;;3.05;;
20476;SDS011;10397;50.948;11.092;2023-06-14T08:25:55;3.73;;;2.17;;
20476;SDS011;10397;50.948;11.092;2023-06-14T08:28:26;4.10;;;1.85;;
20476;SDS011;10397;50.948;11.092;2023-06-14T08:30:57;3.08;;;2.52;;
20476;SDS011;10397;50.948;11.092;2023-06-14T08:33:29;3.42;;;2.15;;
20476;SDS011;10397;50.948;11.092;2023-06-14T08:36:00;7.10;;;2.67;;
20476;SDS011;10397;50.948;11.092;2023-06-14T08:38:31;3.37;;;2.27;;
20476;SDS011;10397;50.948;11.092;2023-06-14T08:41:03;4.35;;;2.20;;
20476;SDS011;10397;50.948;11.092;2023-06-14T08:43:36;7.63;;;2.27;;
20476;SDS011;10397;50.948;11.092;2023-06-14T08:46:07;3.67;;;2.00;;
20476;SDS011;10397;50.948;11.092;2023-06-14T08:48:38;4.80;;;2.60;;
20476;SDS011;10397;50.948;11.092;2023-06-14T08:51:10;4.05;;;2.17;;
20476;SDS011;10397;50.948;11.092;2023-06-14T08:53:41;2.95;;;2.02;;
20476;SDS011;10397;50.948;11.092;2023-06-14T08:56:12;2.67;;;1.95;;
20476;SDS011;10397;50.948;11.092;2023-06-14T08:58:44;7.17;;;1.82;;
20476;SDS011;10397;50.948;11.092;2023-06-14T09:01:15;2.55;;;1.85;;
20476;SDS011;10397;50.948;11.092;2023-06-14T09:03:46;2.55;;;1.80;;
20476;SDS011;10397;50.948;11.092;2023-06-14T09:06:17;2.20;;;1.75;;
20476;SDS011;10397;50.948;11.092;2023-06-14T09:08:48;5.60;;;2.00;;
20476;SDS011;10397;50.948;11.092;2023-06-14T09:11:19;4.50;;;2.13;;
20476;SDS011;10397;50.948;11.092;2023-06-14T09:13:50;3.60;;;2.23;;
20476;SDS011;10397;50.948;11.092;2023-06-14T09:16:21;3.10;;;2.45;;
20476;SDS011;10397;50.948;11.092;2023-06-14T09:18:53;2.52;;;2.10;;
20476;SDS011;10397;50.948;11.092;2023-06-14T09:21:22;6.40;;;1.90;;
20476;SDS011;10397;50.948;11.092;2023-06-14T09:23:54;3.25;;;2.02;;
20476;SDS011;10397;50.948;11.092;2023-06-14T09:26:25;2.25;;;2.05;;
20476;SDS011;10397;50.948;11.092;2023-06-14T09:28:56;3.58;;;2.20;;
20476;SDS011;10397;50.948;11.092;2023-06-14T09:31:28;3.15;;;1.80;;
20476;SDS011;10397;50.948;11.092;2023-06-14T09:34:01;11.33;;;2.50;;
20476;SDS011;10397;50.948;11.092;2023-06-14T09:36:31;5.78;;;2.40;;
20476;SDS011;10397;50.948;11.092;2023-06-14T09:39:02;5.00;;;2.50;;
20476;SDS011;10397;50.948;11.092;2023-06-14T09:41:34;3.27;;;2.13;;
20476;SDS011;10397;50.948;11.092;2023-06-14T09:44:10;6.50;;;2.10;;
20476;SDS011;10397;50.948;11.092;2023-06-14T09:46:41;9.43;;;2.17;;
20476;SDS011;10397;50.948;11.092;2023-06-14T09:49:12;2.77;;;1.90;;
20476;SDS011;10397;50.948;11.092;2023-06-14T09:51:45;3.92;;;2.20;;
20476;SDS011;10397;50.948;11.092;2023-06-14T09:54:16;8.28;;;2.17;;
20476;SDS011;10397;50.948;11.092;2023-06-14T09:56:47;3.25;;;1.80;;
20476;SDS011;10397;50.948;11.092;2023-06-14T09:59:21;4.12;;;1.85;;
20476;SDS011;10397;50.948;11.092;2023-06-14T10:01:51;5.10;;;1.80;;
20476;SDS011;10397;50.948;11.092;2023-06-14T10:04:22;3.17;;;1.90;;
20476;SDS011;10397;50.948;11.092;2023-06-14T10:06:54;5.75;;;2.00;;
20476;SDS011;10397;50.948;11.092;2023-06-14T10:09:25;8.25;;;2.00;;
20476;SDS011;10397;50.948;11.092;2023-06-14T10:11:57;5.40;;;1.95;;
20476;SDS011;10397;50.948;11.092;2023-06-14T10:14:28;6.17;;;2.17;;
20476;SDS011;10397;50.948;11.092;2023-06-14T10:17:04;1.75;;;1.40;;
20476;SDS011;10397;50.948;11.092;2023-06-14T10:19:48;5.20;;;2.10;;
20476;SDS011;10397;50.948;11.092;2023-06-14T10:22:27;5.67;;;2.30;;
20476;SDS011;10397;50.948;11.092;2023-06-14T10:25:01;2.20;;;1.57;;
20476;SDS011;10397;50.948;11.092;2023-06-14T10:27:31;8.40;;;1.75;;
20476;SDS011;10397;50.948;11.092;2023-06-14T10:30:03;6.42;;;1.80;;
20476;SDS011;10397;50.948;11.092;2023-06-14T10:32:34;4.70;;;1.90;;
20476;SDS011;10397;50.948;11.092;2023-06-14T10:35:05;2.50;;;1.70;;
20476;SDS011;10397;50.948;11.092;2023-06-14T10:37:36;2.58;;;1.70;;
20476;SDS011;10397;50.948;11.092;2023-06-14T10:40:07;2.27;;;1.60;;
20476;SDS011;10397;50.948;11.092;2023-06-14T10:42:38;4.87;;;1.98;;
20476;SDS011;10397;50.948;11.092;2023-06-14T10:45:10;3.70;;;1.50;;
20476;SDS011;10397;50.948;11.092;2023-06-14T10:47:41;3.95;;;1.95;;
20476;SDS011;10397;50.948;11.092;2023-06-14T10:50:12;6.37;;;2.10;;
20476;SDS011;10397;50.948;11.092;2023-06-14T10:52:44;4.03;;;1.80;;
20476;SDS011;10397;50.948;11.092;2023-06-14T10:55:15;4.25;;;1.60;;
20476;SDS011;10397;50.948;11.092;2023-06-14T10:57:47;1.62;;;1.52;;
20476;SDS011;10397;50.948;11.092;2023-06-14T11:00:16;5.37;;;1.87;;
20476;SDS011;10397;50.948;11.092;2023-06-14T11:08:27;4.13;;;2.20;;
20476;SDS011;10397;50.948;11.092;2023-06-14T11:11:00;3.33;;;1.43;;
20476;SDS011;10397;50.948;11.092;2023-06-14T11:13:30;3.57;;;1.80;;
20476;SDS011;10397;50.948;11.092;2023-06-14T11:16:01;4.83;;;1.67;;
20476;SDS011;10397;50.948;11.092;2023-06-14T11:18:32;2.50;;;1.65;;
20476;SDS011;10397;50.948;11.092;2023-06-14T11:21:04;2.65;;;1.52;;
20476;SDS011;10397;50.948;11.092;2023-06-14T11:23:35;2.80;;;1.12;;
20476;SDS011;10397;50.948;11.092;2023-06-14T11:26:06;5.42;;;1.37;;
20476;SDS011;10397;50.948;11.092;2023-06-14T11:28:38;7.20;;;1.65;;
20476;SDS011;10397;50.948;11.092;2023-06-14T11:31:09;1.80;;;1.43;;
20476;SDS011;10397;50.948;11.092;2023-06-14T11:33:40;3.70;;;1.35;;
20476;SDS011;10397;50.948;11.092;2023-06-14T11:36:11;3.00;;;1.20;;
20476;SDS011;10397;50.948;11.092;2023-06-14T11:38:42;7.60;;;1.20;;
20476;SDS011;10397;50.948;11.092;2023-06-14T11:41:14;1.92;;;1.50;;
20476;SDS011;10397;50.948;11.092;2023-06-14T11:43:45;2.33;;;1.00;;
20476;SDS011;10397;50.948;11.092;2023-06-14T11:46:17;1.52;;;1.00;;
20476;SDS011;10397;50.948;11.092;2023-06-14T11:48:48;1.70;;;0.90;;
20476;SDS011;10397;50.948;11.092;2023-06-14T11:51:20;5.53;;;1.37;;
20476;SDS011;10397;50.948;11.092;2023-06-14T11:53:51;2.25;;;1.60;;
20476;SDS011;10397;50.948;11.092;2023-06-14T11:56:22;3.40;;;1.50;;
20476;SDS011;10397;50.948;11.092;2023-06-14T11:58:53;8.73;;;1.63;;
20476;SDS011;10397;50.948;11.092;2023-06-14T12:01:24;1.40;;;1.05;;
20476;SDS011;10397;50.948;11.092;2023-06-14T12:03:55;4.12;;;1.40;;
20476;SDS011;10397;50.948;11.092;2023-06-14T12:06:28;3.92;;;1.50;;
20476;SDS011;10397;50.948;11.092;2023-06-14T12:08:57;5.00;;;1.50;;
20476;SDS011;10397;50.948;11.092;2023-06-14T12:11:32;5.42;;;1.65;;
20476;SDS011;10397;50.948;11.092;2023-06-14T12:14:05;3.33;;;1.30;;
20476;SDS011;10397;50.948;11.092;2023-06-14T12:16:39;4.00;;;1.43;;
20476;SDS011;10397;50.948;11.092;2023-06-14T12:19:13;4.33;;;1.10;;
20476;SDS011;10397;50.948;11.092;2023-06-14T12:21:46;4.07;;;1.60;;
20476;SDS011;10397;50.948;11.092;2023-06-14T12:24:17;2.10;;;1.27;;
20476;SDS011;10397;50.948;11.092;2023-06-14T12:26:48;1.75;;;1.22;;
20476;SDS011;10397;50.948;11.092;2023-06-14T12:29:19;3.33;;;1.50;;
20476;SDS011;10397;50.948;11.092;2023-06-14T12:31:50;3.25;;;1.30;;
20476;SDS011;10397;50.948;11.092;2023-06-14T12:34:21;2.05;;;1.70;;
20476;SDS011;10397;50.948;11.092;2023-06-14T12:36:52;3.57;;;1.40;;
20476;SDS011;10397;50.948;11.092;2023-06-14T12:39:25;2.07;;;1.30;;
20476;SDS011;10397;50.948;11.092;2023-06-14T12:41:57;2.87;;;1.52;;
20476;SDS011;10397;50.948;11.092;2023-06-14T12:44:28;9.33;;;1.52;;
20476;SDS011;10397;50.948;11.092;2023-06-14T12:46:59;3.02;;;1.20;;
20476;SDS011;10397;50.948;11.092;2023-06-14T12:49:31;1.57;;;1.10;;
20476;SDS011;10397;50.948;11.092;2023-06-14T12:52:03;2.60;;;1.50;;
20476;SDS011;10397;50.948;11.092;2023-06-14T12:54:34;3.40;;;1.70;;
20476;SDS011;10397;50.948;11.092;2023-06-14T12:57:06;4.12;;;1.30;;
20476;SDS011;10397;50.948;11.092;2023-06-14T12:59:36;1.90;;;1.37;;
20476;SDS011;10397;50.948;11.092;2023-06-14T13:02:15;4.00;;;1.57;;
20476;SDS011;10397;50.948;11.092;2023-06-14T13:04:44;2.17;;;1.73;;
20476;SDS011;10397;50.948;11.092;2023-06-14T13:07:15;1.82;;;1.30;;
20476;SDS011;10397;50.948;11.092;2023-06-14T13:09:46;5.17;;;1.87;;
20476;SDS011;10397;50.948;11.092;2023-06-14T13:12:17;2.30;;;1.77;;
20476;SDS011;10397;50.948;11.092;2023-06-14T13:14:48;1.97;;;1.60;;
20476;SDS011;10397;50.948;11.092;2023-06-14T13:17:20;4.77;;;1.50;;
20476;SDS011;10397;50.948;11.092;2023-06-14T13:19:51;4.12;;;1.30;;
20476;SDS011;10397;50.948;11.092;2023-06-14T13:22:22;2.25;;;1.52;;
20476;SDS011;10397;50.948;11.092;2023-06-14T13:24:53;2.93;;;1.60;;
20476;SDS011;10397;50.948;11.092;2023-06-14T13:27:25;3.90;;;1.30;;
20476;SDS011;10397;50.948;11.092;2023-06-14T13:29:56;1.17;;;1.05;;
20476;SDS011;10397;50.948;11.092;2023-06-14T13:32:27;4.30;;;1.30;;
20476;SDS011;10397;50.948;11.092;2023-06-14T13:34:59;2.80;;;1.30;;
20476;SDS011;10397;50.948;11.092;2023-06-14T13:37:30;3.25;;;1.65;;
20476;SDS011;10397;50.948;11.092;2023-06-14T13:40:02;5.25;;;1.62;;
20476;SDS011;10397;50.948;11.092;2023-06-14T13:42:32;2.57;;;1.50;;
20476;SDS011;10397;50.948;11.092;2023-06-14T13:45:04;4.00;;;1.20;;
20476;SDS011;10397;50.948;11.092;2023-06-14T13:47:36;2.17;;;1.50;;
20476;SDS011;10397;50.948;11.092;2023-06-14T13:50:07;2.30;;;1.30;;
20476;SDS011;10397;50.948;11.092;2023-06-14T13:52:38;3.60;;;1.47;;
20476;SDS011;10397;50.948;11.092;2023-06-14T13:55:09;1.85;;;1.15;;
20476;SDS011;10397;50.948;11.092;2023-06-14T13:57:41;2.42;;;1.30;;
20476;SDS011;10397;50.948;11.092;2023-06-14T14:00:12;1.60;;;1.00;;
20476;SDS011;10397;50.948;11.092;2023-06-14T14:02:44;1.62;;;1.15;;
20476;SDS011;10397;50.948;11.092;2023-06-14T14:05:15;1.87;;;1.22;;
20476;SDS011;10397;50.948;11.092;2023-06-14T14:07:47;3.45;;;1.70;;
20476;SDS011;10397;50.948;11.092;2023-06-14T14:10:18;5.45;;;0.80;;
20476;SDS011;10397;50.948;11.092;2023-06-14T14:12:50;1.65;;;1.10;;
20476;SDS011;10397;50.948;11.092;2023-06-14T14:15:21;2.02;;;1.17;;
20476;SDS011;10397;50.948;11.092;2023-06-14T14:17:53;2.65;;;1.00;;
20476;SDS011;10397;50.948;11.092;2023-06-14T14:20:24;5.05;;;0.98;;
20476;SDS011;10397;50.948;11.092;2023-06-14T14:22:56;1.92;;;1.20;;
20476;SDS011;10397;50.948;11.092;2023-06-14T14:25:27;2.02;;;1.27;;
20476;SDS011;10397;50.948;11.092;2023-06-14T14:27:59;1.60;;;1.10;;
20476;SDS011;10397;50.948;11.092;2023-06-14T14:30:30;1.20;;;0.90;;
20476;SDS011;10397;50.948;11.092;2023-06-14T14:33:01;3.30;;;1.00;;
20476;SDS011;10397;50.948;11.092;2023-06-14T14:35:33;1.50;;;1.05;;
20476;SDS011;10397;50.948;11.092;2023-06-14T14:38:03;2.70;;;0.70;;
20476;SDS011;10397;50.948;11.092;2023-06-14T14:40:35;1.17;;;0.85;;
20476;SDS011;10397;50.948;11.092;2023-06-14T14:43:06;3.00;;;1.37;;
20476;SDS011;10397;50.948;11.092;2023-06-14T14:45:37;1.45;;;0.93;;
20476;SDS011;10397;50.948;11.092;2023-06-14T14:48:08;1.67;;;1.22;;
20476;SDS011;10397;50.948;11.092;2023-06-14T14:50:40;1.70;;;1.00;;
20476;SDS011;10397;50.948;11.092;2023-06-14T14:53:12;1.27;;;0.70;;
20476;SDS011;10397;50.948;11.092;2023-06-14T14:55:43;3.20;;;0.90;;
20476;SDS011;10397;50.948;11.092;2023-06-14T14:58:13;1.47;;;0.80;;
20476;SDS011;10397;50.948;11.092;2023-06-14T15:00:45;0.80;;;0.70;;
20476;SDS011;10397;50.948;11.092;2023-06-14T15:03:16;2.20;;;1.00;;